createdAt,value
2023-07-25T00:00:39.169Z,9.678228
2023-07-25T00:01:39.278Z,9.678226
2023-07-25T00:02:39.192Z,9.678220
2023-07-25T00:03:39.331Z,9.678245
2023-07-25T00:04:39.158Z,9.678225
2023-07-25T00:05:39.156Z,9.678276
2023-07-25T00:06:39.152Z,9.678222
2023-07-25T00:07:39.132Z,9.678205
2023-07-25T00:08:39.122Z,9.678213
2023-07-25T00:09:39.162Z,9.678204
2023-07-25T00:10:39.091Z,9.678226
2023-07-25T00:11:39.098Z,9.678187
2023-07-25T00:12:39.071Z,9.678173
2023-07-25T00:13:39.097Z,9.678175
2023-07-25T00:14:39.049Z,9.678159
2023-07-25T00:15:39.104Z,9.678202
2023-07-25T00:16:39.069Z,9.678177
2023-07-25T00:17:39.093Z,9.678181
2023-07-25T00:18:39.131Z,9.678154
2023-07-25T00:19:39.019Z,9.678144
2023-07-25T00:20:39.021Z,9.678185
2023-07-25T00:21:39.079Z,9.678153
2023-07-25T00:22:39.022Z,9.678143
2023-07-25T00:23:39.142Z,9.678176
2023-07-25T00:24:39.090Z,9.678163
2023-07-25T00:25:39.146Z,9.678133
2023-07-25T00:26:38.995Z,9.678132
2023-07-25T00:27:39.038Z,9.678154
2023-07-25T00:28:38.934Z,9.678213
2023-07-25T00:29:38.964Z,9.678173
2023-07-25T00:30:38.934Z,9.678132
2023-07-25T00:31:38.964Z,9.678178
2023-07-25T00:32:39.094Z,9.678173
2023-07-25T00:33:38.903Z,9.678166
2023-07-25T00:34:38.875Z,9.678170
2023-07-25T00:35:38.875Z,9.678164
2023-07-25T00:36:38.868Z,9.678199
2023-07-25T00:37:38.852Z,9.678226
2023-07-25T00:38:38.912Z,9.678207
2023-07-25T00:39:38.847Z,9.678232
2023-07-25T00:40:38.889Z,9.678242
2023-07-25T00:41:38.815Z,9.678226
2023-07-25T00:42:38.821Z,9.678214
2023-07-25T00:43:38.822Z,9.678256
2023-07-25T00:44:38.887Z,9.678212
2023-07-25T00:45:38.799Z,9.678197
2023-07-25T00:46:38.797Z,9.678221
2023-07-25T00:47:38.856Z,9.678209
2023-07-25T00:48:38.812Z,9.678188
2023-07-25T00:49:38.789Z,9.678201
2023-07-25T00:50:38.805Z,9.678193
2023-07-25T00:51:38.746Z,9.678205
2023-07-25T00:52:38.744Z,9.678186
2023-07-25T00:53:38.726Z,9.678217
2023-07-25T00:54:38.712Z,9.678233
2023-07-25T00:55:38.751Z,9.678186
2023-07-25T00:56:38.732Z,9.678189
2023-07-25T00:57:38.725Z,9.678181
2023-07-25T00:58:38.685Z,9.678162
2023-07-25T00:59:38.665Z,9.678163
2023-07-25T01:00:38.716Z,9.678175
2023-07-25T01:01:38.757Z,9.678212
2023-07-25T01:02:38.707Z,9.678205
2023-07-25T01:03:38.725Z,9.678200
2023-07-25T01:04:38.631Z,9.678185
2023-07-25T01:05:38.602Z,9.678173
2023-07-25T01:06:38.676Z,9.678194
2023-07-25T01:07:38.619Z,9.678160
2023-07-25T01:08:38.640Z,9.678212
2023-07-25T01:09:38.572Z,9.678205
2023-07-25T01:10:38.579Z,9.678220
2023-07-25T01:11:38.560Z,9.678231
2023-07-25T01:12:38.571Z,9.678205
2023-07-25T01:13:38.600Z,9.678218
2023-07-25T01:14:38.565Z,9.678222
2023-07-25T01:15:38.541Z,9.678134
2023-07-25T01:16:38.544Z,9.678161
2023-07-25T01:17:38.562Z,9.678186
2023-07-25T01:18:38.518Z,9.678166
2023-07-25T01:19:38.538Z,9.678194
2023-07-25T01:20:38.487Z,9.678192
2023-07-25T01:21:38.534Z,9.678154
2023-07-25T01:22:38.543Z,9.678150
2023-07-25T01:23:38.464Z,9.678158
2023-07-25T01:24:38.499Z,9.678119
2023-07-25T01:25:38.494Z,9.678134
2023-07-25T01:26:38.431Z,9.678158
2023-07-25T01:27:38.493Z,9.678169
2023-07-25T01:28:38.428Z,9.678149
2023-07-25T01:29:38.479Z,9.678144
2023-07-25T01:30:38.408Z,9.678132
2023-07-25T01:31:38.415Z,9.678157
2023-07-25T01:32:38.397Z,9.678143
2023-07-25T01:33:38.504Z,9.678162
2023-07-25T01:34:38.383Z,9.678116
2023-07-25T01:35:38.419Z,9.678132
2023-07-25T01:36:38.392Z,9.678118
2023-07-25T01:37:38.348Z,9.678121
2023-07-25T01:38:38.336Z,9.678102
2023-07-25T01:39:38.318Z,9.678134
2023-07-25T01:40:38.329Z,9.678150
2023-07-25T01:41:38.385Z,9.678147
2023-07-25T01:42:38.872Z,9.678159
2023-07-25T01:43:38.282Z,9.678142
2023-07-25T01:44:38.315Z,9.678172
2023-07-25T01:45:38.372Z,9.678149
2023-07-25T01:46:38.257Z,9.678153
2023-07-25T01:47:38.269Z,9.678131
2023-07-25T01:48:38.317Z,9.678119
2023-07-25T01:49:38.232Z,9.678133
2023-07-25T01:50:38.253Z,9.678155
2023-07-25T01:51:38.223Z,9.678194
2023-07-25T01:52:38.217Z,9.678177
2023-07-25T01:53:38.225Z,9.678123
2023-07-25T01:54:38.305Z,9.678136
2023-07-25T01:55:38.198Z,9.678136
2023-07-25T01:56:38.200Z,9.678137
2023-07-25T01:57:38.194Z,9.678177
2023-07-25T01:58:38.176Z,9.678142
2023-07-25T01:59:38.143Z,9.678151
2023-07-25T02:00:38.183Z,9.678151
2023-07-25T02:01:38.192Z,9.678117
2023-07-25T02:02:38.193Z,9.678119
2023-07-25T02:03:38.118Z,9.678170
2023-07-25T02:04:38.140Z,9.678168
2023-07-25T02:05:38.086Z,9.678165
2023-07-25T02:06:38.227Z,9.678156
2023-07-25T02:07:38.150Z,9.678144
2023-07-25T02:08:38.155Z,9.678185
2023-07-25T02:09:38.068Z,9.678169
2023-07-25T02:10:38.091Z,9.678120
2023-07-25T02:11:38.077Z,9.678112
2023-07-25T02:12:38.079Z,9.678159
2023-07-25T02:13:38.080Z,9.678123
2023-07-25T02:14:38.077Z,9.678126
2023-07-25T02:15:38.011Z,9.678129
2023-07-25T02:16:38.187Z,9.678137
2023-07-25T02:17:38.139Z,9.678095
2023-07-25T02:18:37.995Z,9.678104
2023-07-25T02:19:37.976Z,9.678149
2023-07-25T02:20:38.355Z,9.678102
2023-07-25T02:21:37.962Z,9.678132
2023-07-25T02:22:38.161Z,9.678153
2023-07-25T02:23:37.954Z,9.678144
2023-07-25T02:24:38.001Z,9.678114
2023-07-25T02:25:37.954Z,9.678108
2023-07-25T02:26:37.985Z,9.678127
2023-07-25T02:27:37.921Z,9.678123
2023-07-25T02:28:37.926Z,9.678123
2023-07-25T02:29:37.892Z,9.678104
2023-07-25T02:30:37.958Z,9.678135
2023-07-25T02:31:38.000Z,9.678112
2023-07-25T02:32:37.925Z,9.678093
2023-07-25T02:33:37.862Z,9.678030
2023-07-25T02:34:37.855Z,9.678128
2023-07-25T02:35:37.871Z,9.678093
2023-07-25T02:36:37.891Z,9.678113
2023-07-25T02:37:37.958Z,9.678089
2023-07-25T02:38:37.894Z,9.678127
2023-07-25T02:39:37.872Z,9.678132
2023-07-25T02:40:37.845Z,9.678103
2023-07-25T02:41:37.796Z,9.678113
2023-07-25T02:42:37.806Z,9.678060
2023-07-25T02:43:37.867Z,9.678159
2023-07-25T02:44:37.822Z,9.678144
2023-07-25T02:45:37.793Z,9.678132
2023-07-25T02:46:37.790Z,9.678126
2023-07-25T02:47:37.810Z,9.678164
2023-07-25T02:48:37.764Z,9.678154
2023-07-25T02:49:37.835Z,9.678105
2023-07-25T02:50:37.794Z,9.678091
2023-07-25T02:51:37.720Z,9.678126
2023-07-25T02:52:37.802Z,9.678139
2023-07-25T02:53:37.706Z,9.678154
2023-07-25T02:54:37.741Z,9.678151
2023-07-25T02:55:37.695Z,9.678125
2023-07-25T02:56:37.736Z,9.678086
2023-07-25T02:57:37.726Z,9.678121
2023-07-25T02:58:37.694Z,9.678177
2023-07-25T02:59:37.646Z,9.678124
2023-07-25T03:00:37.679Z,9.678077
2023-07-25T03:01:37.677Z,9.678095
2023-07-25T03:02:37.701Z,9.678049
2023-07-25T03:03:37.695Z,9.678088
2023-07-25T03:04:37.708Z,9.678094
2023-07-25T03:05:37.636Z,9.678147
2023-07-25T03:06:37.628Z,9.678144
2023-07-25T03:07:37.588Z,9.678126
2023-07-25T03:08:37.671Z,9.678122
2023-07-25T03:09:37.599Z,9.678107
2023-07-25T03:10:37.588Z,9.678146
2023-07-25T03:11:37.553Z,9.678101
2023-07-25T03:12:37.587Z,9.678160
2023-07-25T03:13:38.018Z,9.678183
2023-07-25T03:14:37.599Z,9.678196
2023-07-25T03:15:37.597Z,9.678153
2023-07-25T03:16:37.528Z,9.678085
2023-07-25T03:17:37.532Z,9.678144
2023-07-25T03:18:37.547Z,9.678114
2023-07-25T03:19:37.486Z,9.678100
2023-07-25T03:20:37.482Z,9.678096
2023-07-25T03:21:37.486Z,9.678066
2023-07-25T03:22:37.470Z,9.678074
2023-07-25T03:23:37.454Z,9.678123
2023-07-25T03:24:37.559Z,9.678149
2023-07-25T03:25:37.448Z,9.678156
2023-07-25T03:26:37.433Z,9.678178
2023-07-25T03:27:37.435Z,9.678102
2023-07-25T03:28:37.549Z,9.678073
2023-07-25T03:29:37.441Z,9.678088
2023-07-25T03:30:37.489Z,9.678121
2023-07-25T03:31:37.381Z,9.678091
2023-07-25T03:32:37.454Z,9.678115
2023-07-25T03:33:37.429Z,9.678121
2023-07-25T03:34:37.373Z,9.678066
2023-07-25T03:35:37.364Z,9.678082
2023-07-25T03:36:37.378Z,9.678043
2023-07-25T03:37:37.354Z,9.678128
2023-07-25T03:38:37.391Z,9.678132
2023-07-25T03:39:37.378Z,9.678094
2023-07-25T03:40:37.412Z,9.678146
2023-07-25T03:41:37.320Z,9.678108
2023-07-25T03:42:37.406Z,9.678112
2023-07-25T03:43:37.362Z,9.678114
2023-07-25T03:44:37.406Z,9.678119
2023-07-25T03:45:37.368Z,9.678123
2023-07-25T03:46:37.413Z,9.678181
2023-07-25T03:47:37.500Z,9.678144
2023-07-25T03:48:37.378Z,9.678140
2023-07-25T03:49:37.310Z,9.678101
2023-07-25T03:50:37.237Z,9.678102
2023-07-25T03:51:37.262Z,9.678103
2023-07-25T03:52:37.286Z,9.678107
2023-07-25T03:53:37.238Z,9.678141
2023-07-25T03:54:37.294Z,9.678138
2023-07-25T03:55:37.185Z,9.678129
2023-07-25T03:56:37.196Z,9.678138
2023-07-25T03:57:37.191Z,9.678125
2023-07-25T03:58:37.258Z,9.678145
2023-07-25T03:59:37.174Z,9.678107
2023-07-25T04:00:37.247Z,9.678135
2023-07-25T04:01:37.158Z,9.678141
2023-07-25T04:02:37.174Z,9.678159
2023-07-25T04:03:37.331Z,9.678144
2023-07-25T04:04:37.216Z,9.678107
2023-07-25T04:05:37.110Z,9.678112
2023-07-25T04:06:37.129Z,9.678133
2023-07-25T04:07:37.105Z,9.678147
2023-07-25T04:08:37.138Z,9.678183
2023-07-25T04:09:37.122Z,9.678124
2023-07-25T04:10:37.090Z,9.678080
2023-07-25T04:11:37.064Z,9.678144
2023-07-25T04:12:37.071Z,9.678119
2023-07-25T04:13:37.052Z,9.678103
2023-07-25T04:14:37.128Z,9.678131
2023-07-25T04:15:37.034Z,9.678117
2023-07-25T04:16:37.139Z,9.678101
2023-07-25T04:17:37.076Z,9.678166
2023-07-25T04:18:37.013Z,9.678151
2023-07-25T04:19:37.002Z,9.678142
2023-07-25T04:20:37.057Z,9.678156
2023-07-25T04:21:36.970Z,9.678121
2023-07-25T04:22:37.049Z,9.678119
2023-07-25T04:23:36.964Z,9.678103
2023-07-25T04:24:37.032Z,9.678099
2023-07-25T04:25:36.962Z,9.678082
2023-07-25T04:26:37.030Z,9.678107
2023-07-25T04:27:37.031Z,9.678104
2023-07-25T04:28:36.930Z,9.678100
2023-07-25T04:29:36.964Z,9.678134
2023-07-25T04:30:36.908Z,9.678098
2023-07-25T04:31:36.939Z,9.678150
2023-07-25T04:32:36.994Z,9.678111
2023-07-25T04:33:36.887Z,9.678114
2023-07-25T04:34:37.019Z,9.678129
2023-07-25T04:35:36.924Z,9.678137
2023-07-25T04:36:36.913Z,9.678082
2023-07-25T04:37:36.852Z,9.678094
2023-07-25T04:38:36.924Z,9.678111
2023-07-25T04:39:36.843Z,9.678114
2023-07-25T04:40:36.836Z,9.678102
2023-07-25T04:41:36.821Z,9.678085
2023-07-25T04:42:36.842Z,9.678067
2023-07-25T04:43:36.839Z,9.678073
2023-07-25T04:44:36.817Z,9.678036
2023-07-25T04:45:36.806Z,9.678083
2023-07-25T04:46:36.839Z,9.678074
2023-07-25T04:47:36.815Z,9.678060
2023-07-25T04:48:36.807Z,9.678021
2023-07-25T04:49:36.798Z,9.678097
2023-07-25T04:50:36.745Z,9.678126
2023-07-25T04:51:36.773Z,9.678041
2023-07-25T04:52:36.836Z,9.678089
2023-07-25T04:53:36.729Z,9.678043
2023-07-25T04:54:36.710Z,9.678034
2023-07-25T04:55:36.880Z,9.678104
2023-07-25T04:56:36.773Z,9.678084
2023-07-25T04:57:36.707Z,9.678052
2023-07-25T04:58:36.677Z,9.678025
2023-07-25T04:59:36.675Z,9.678038
2023-07-25T05:00:36.714Z,9.678067
2023-07-25T05:01:36.698Z,9.678086
2023-07-25T05:02:36.670Z,9.678096
2023-07-25T05:03:36.681Z,9.678102
2023-07-25T05:04:36.629Z,9.678038
2023-07-25T05:05:36.673Z,9.677991
2023-07-25T05:06:36.635Z,9.678076
2023-07-25T05:07:36.712Z,9.678026
2023-07-25T05:08:36.591Z,9.678043
2023-07-25T05:09:36.669Z,9.678039
2023-07-25T05:10:36.588Z,9.678095
2023-07-25T05:11:36.580Z,9.678066
2023-07-25T05:12:36.623Z,9.678075
2023-07-25T05:13:36.556Z,9.678012
2023-07-25T05:14:36.535Z,9.678049
2023-07-25T05:15:36.542Z,9.678112
2023-07-25T05:16:36.560Z,9.678104
2023-07-25T05:17:36.535Z,9.678144
2023-07-25T05:18:36.509Z,9.678091
2023-07-25T05:19:36.491Z,9.678051
2023-07-25T05:20:36.486Z,9.678004
2023-07-25T05:21:36.476Z,9.678072
2023-07-25T05:22:36.515Z,9.678104
2023-07-25T05:23:36.461Z,9.678099
2023-07-25T05:24:36.492Z,9.678116
2023-07-25T05:25:36.452Z,9.678061
2023-07-25T05:26:36.450Z,9.678059
2023-07-25T05:27:36.433Z,9.678116
2023-07-25T05:28:36.495Z,9.678081
2023-07-25T05:29:36.420Z,9.678107
2023-07-25T05:30:36.425Z,9.678134
2023-07-25T05:31:36.432Z,9.678134
2023-07-25T05:32:37.706Z,9.678046
2023-07-25T05:33:36.391Z,9.678043
2023-07-25T05:34:36.395Z,9.678009
2023-07-25T05:35:36.361Z,9.677962
2023-07-25T05:36:37.322Z,9.678043
2023-07-25T05:37:36.399Z,9.678092
2023-07-25T05:38:36.330Z,9.678102
2023-07-25T05:39:36.550Z,9.678104
2023-07-25T05:40:36.957Z,9.678108
2023-07-25T05:41:36.312Z,9.678110
2023-07-25T05:42:36.291Z,9.678076
2023-07-25T05:43:36.328Z,9.678184
2023-07-25T05:44:36.286Z,9.678162
2023-07-25T05:45:36.312Z,9.678150
2023-07-25T05:46:37.756Z,9.678121
2023-07-25T05:47:36.282Z,9.678137
2023-07-25T05:48:36.321Z,9.678168
2023-07-25T05:49:36.290Z,9.678222
2023-07-25T05:50:36.222Z,9.678172
2023-07-25T05:51:36.404Z,9.678211
2023-07-25T05:52:36.212Z,9.678225
2023-07-25T05:53:36.216Z,9.678207
2023-07-25T05:54:36.198Z,9.678159
2023-07-25T05:55:36.410Z,9.678133
2023-07-25T05:56:36.254Z,9.678146
2023-07-25T05:57:36.182Z,9.678137
2023-07-25T05:58:36.157Z,9.678198
2023-07-25T05:59:36.162Z,9.678204
2023-07-25T06:00:36.184Z,9.678177
2023-07-25T06:01:36.408Z,9.678171
2023-07-25T06:02:36.713Z,9.678125
2023-07-25T06:03:36.189Z,9.678163
2023-07-25T06:04:36.126Z,9.678159
2023-07-25T06:05:36.112Z,9.678156
2023-07-25T06:06:36.141Z,9.678140
2023-07-25T06:07:36.084Z,9.678093
2023-07-25T06:08:36.062Z,9.678137
2023-07-25T06:09:36.766Z,9.678140
2023-07-25T06:10:36.035Z,9.678138
2023-07-25T06:11:36.037Z,9.678144
2023-07-25T06:12:36.077Z,9.678167
2023-07-25T06:13:37.211Z,9.678181
2023-07-25T06:14:36.877Z,9.678151
2023-07-25T06:15:57.851Z,9.678134
2023-07-25T06:16:39.392Z,9.678127
2023-07-25T06:17:40.291Z,9.678123
2023-07-25T06:18:45.272Z,9.678155
2023-07-25T06:19:45.785Z,9.678124
2023-07-25T06:20:37.901Z,9.678135
2023-07-25T06:21:37.765Z,9.678154
2023-07-25T06:22:40.892Z,9.678156
2023-07-25T06:24:00.267Z,9.678159
2023-07-25T06:24:38.846Z,9.678163
2023-07-25T06:25:36.762Z,9.678173
2023-07-25T06:26:38.036Z,9.678164
2023-07-25T06:27:37.064Z,9.678161
2023-07-25T06:28:36.823Z,9.678185
2023-07-25T06:29:40.835Z,9.678156
2023-07-25T06:30:35.865Z,9.678129
2023-07-25T06:31:35.952Z,9.678146
2023-07-25T06:32:35.916Z,9.678131
2023-07-25T06:33:35.871Z,9.678129
2023-07-25T06:34:35.934Z,9.678117
2023-07-25T06:35:35.876Z,9.678122
2023-07-25T06:36:35.832Z,9.678133
2023-07-25T06:37:35.839Z,9.678152
2023-07-25T06:38:35.819Z,9.678136
2023-07-25T06:39:35.818Z,9.678098
2023-07-25T06:40:35.794Z,9.678124
2023-07-25T06:41:35.817Z,9.678154
2023-07-25T06:42:35.764Z,9.678116
2023-07-25T06:43:35.756Z,9.678138
2023-07-25T06:44:36.890Z,9.678131
2023-07-25T06:45:35.759Z,9.678136
2023-07-25T06:46:35.736Z,9.678142
2023-07-25T06:47:36.491Z,9.678116
2023-07-25T06:48:35.699Z,9.678132
2023-07-25T06:49:35.718Z,9.678107
2023-07-25T06:50:35.777Z,9.678122
2023-07-25T06:51:35.700Z,9.678114
2023-07-25T06:52:36.338Z,9.678124
2023-07-25T06:53:35.664Z,9.678117
2023-07-25T06:54:35.830Z,9.678143
2023-07-25T06:55:35.672Z,9.678119
2023-07-25T06:56:35.643Z,9.678074
2023-07-25T06:57:35.649Z,9.678112
2023-07-25T06:58:35.655Z,9.678099
2023-07-25T06:59:35.679Z,9.678088
2023-07-25T07:00:35.635Z,9.678110
2023-07-25T07:01:35.613Z,9.678103
2023-07-25T07:02:35.818Z,9.678086
2023-07-25T07:03:35.678Z,9.678091
2023-07-25T07:04:36.353Z,9.678077
2023-07-25T07:05:37.407Z,9.678081
2023-07-25T07:06:35.583Z,9.678121
2023-07-25T07:07:35.555Z,9.678080
2023-07-25T07:08:35.531Z,9.678095
2023-07-25T07:09:36.359Z,9.678102
2023-07-25T07:10:35.518Z,9.678123
2023-07-25T07:11:35.515Z,9.678102
2023-07-25T07:12:35.525Z,9.678079
2023-07-25T07:13:35.508Z,9.678085
2023-07-25T07:14:35.492Z,9.678103
2023-07-25T07:15:35.612Z,9.678101
2023-07-25T07:16:35.526Z,9.678040
2023-07-25T07:17:35.534Z,9.678088
2023-07-25T07:18:35.615Z,9.678077
2023-07-25T07:19:35.462Z,9.678076
2023-07-25T07:20:35.460Z,9.678086
2023-07-25T07:21:35.441Z,9.678063
2023-07-25T07:22:35.426Z,9.678075
2023-07-25T07:23:35.569Z,9.678021
2023-07-25T07:24:35.492Z,9.678076
2023-07-25T07:25:35.412Z,9.678020
2023-07-25T07:26:35.395Z,9.678001
2023-07-25T07:27:35.399Z,9.678008
2023-07-25T07:28:35.369Z,9.678053
2023-07-25T07:29:36.729Z,9.678105
2023-07-25T07:30:35.422Z,9.678122
2023-07-25T07:31:35.479Z,9.678058
2023-07-25T07:32:35.438Z,9.678032
2023-07-25T07:33:35.839Z,9.678057
2023-07-25T07:34:35.328Z,9.677996
2023-07-25T07:35:35.364Z,9.678009
2023-07-25T07:36:35.311Z,9.678068
2023-07-25T07:37:35.313Z,9.678052
2023-07-25T07:38:35.321Z,9.678077
2023-07-25T07:39:35.291Z,9.678063
2023-07-25T07:40:35.270Z,9.678087
2023-07-25T07:41:35.293Z,9.678061
2023-07-25T07:42:35.256Z,9.678020
2023-07-25T07:43:35.259Z,9.678077
2023-07-25T07:44:35.286Z,9.678061
2023-07-25T07:45:35.244Z,9.678060
2023-07-25T07:46:35.279Z,9.678058
2023-07-25T07:47:35.283Z,9.678087
2023-07-25T07:48:35.210Z,9.678094
2023-07-25T07:49:35.254Z,9.678082
2023-07-25T07:50:35.281Z,9.678049
2023-07-25T07:51:35.327Z,9.678060
2023-07-25T07:52:42.125Z,9.678069
2023-07-25T07:53:36.184Z,9.678062
2023-07-25T07:54:35.163Z,9.678098
2023-07-25T07:55:35.192Z,9.678095
2023-07-25T07:56:35.174Z,9.678104
2023-07-25T07:57:35.153Z,9.678049
2023-07-25T07:58:35.127Z,9.678065
2023-07-25T07:59:35.162Z,9.678052
2023-07-25T08:00:35.116Z,9.678079
2023-07-25T08:01:36.618Z,9.678089
2023-07-25T08:02:35.153Z,9.678108
2023-07-25T08:03:35.090Z,9.678065
2023-07-25T08:04:35.095Z,9.678117
2023-07-25T08:05:35.082Z,9.678141
2023-07-25T08:06:35.052Z,9.678125
2023-07-25T08:07:35.143Z,9.678163
2023-07-25T08:08:35.036Z,9.678145
2023-07-25T08:09:35.100Z,9.678139
2023-07-25T08:10:35.020Z,9.678131
2023-07-25T08:11:35.170Z,9.678121
2023-07-25T08:12:35.036Z,9.678141
2023-07-25T08:13:35.060Z,9.678061
2023-07-25T08:14:35.000Z,9.678086
2023-07-25T08:15:35.003Z,9.678152
2023-07-25T08:16:35.009Z,9.678130
2023-07-25T08:17:35.052Z,9.678116
2023-07-25T08:18:34.991Z,9.678183
2023-07-25T08:19:35.017Z,9.678093
2023-07-25T08:20:34.952Z,9.678089
2023-07-25T08:21:37.314Z,9.678085
2023-07-25T08:22:34.932Z,9.678136
2023-07-25T08:23:34.948Z,9.678092
2023-07-25T08:24:34.956Z,9.678072
2023-07-25T08:25:34.923Z,9.678087
2023-07-25T08:26:34.895Z,9.678123
2023-07-25T08:27:34.941Z,9.678105
2023-07-25T08:28:34.902Z,9.678130
2023-07-25T08:29:34.886Z,9.678078
2023-07-25T08:30:34.862Z,9.678076
2023-07-25T08:31:35.076Z,9.678078
2023-07-25T08:32:34.908Z,9.678130
2023-07-25T08:33:34.843Z,9.678135
2023-07-25T08:34:34.823Z,9.678126
2023-07-25T08:35:34.868Z,9.678146
2023-07-25T08:36:34.829Z,9.678132
2023-07-25T08:37:34.873Z,9.678129
2023-07-25T08:38:34.805Z,9.678125
2023-07-25T08:39:34.804Z,9.678110
2023-07-25T08:40:34.809Z,9.678126
2023-07-25T08:41:35.004Z,9.678138
2023-07-25T08:42:34.795Z,9.678128
2023-07-25T08:43:34.779Z,9.678127
2023-07-25T08:44:34.755Z,9.678159
2023-07-25T08:45:34.763Z,9.678163
2023-07-25T08:46:34.956Z,9.678128
2023-07-25T08:47:34.845Z,9.678127
2023-07-25T08:48:34.718Z,9.678163
2023-07-25T08:49:34.769Z,9.678159
2023-07-25T08:50:34.709Z,9.678142
2023-07-25T08:51:34.812Z,9.678124
2023-07-25T08:52:34.748Z,9.678147
2023-07-25T08:53:34.698Z,9.678113
2023-07-25T08:54:34.672Z,9.678123
2023-07-25T08:55:34.686Z,9.678106
2023-07-25T08:56:34.658Z,9.678123
2023-07-25T08:57:34.700Z,9.678125
2023-07-25T08:58:34.639Z,9.678124
2023-07-25T08:59:34.645Z,9.678126
2023-07-25T09:00:34.643Z,9.678112
2023-07-25T09:01:34.906Z,9.678097
2023-07-25T09:02:35.005Z,9.678159
2023-07-25T09:03:34.650Z,9.678134
2023-07-25T09:04:34.692Z,9.678152
2023-07-25T09:05:34.594Z,9.678144
2023-07-25T09:06:34.613Z,9.678140
2023-07-25T09:07:35.381Z,9.678145
2023-07-25T09:08:34.579Z,9.678102
2023-07-25T09:09:34.538Z,9.678098
2023-07-25T09:10:34.583Z,9.678160
2023-07-25T09:11:34.813Z,9.678127
2023-07-25T09:12:34.573Z,9.678078
2023-07-25T09:13:34.512Z,9.678119
2023-07-25T09:14:34.526Z,9.678124
2023-07-25T09:15:34.500Z,9.678152
2023-07-25T09:16:34.615Z,9.678125
2023-07-25T09:17:34.547Z,9.678129
2023-07-25T09:18:34.581Z,9.678144
2023-07-25T09:19:34.465Z,9.678134
2023-07-25T09:20:34.458Z,9.678099
2023-07-25T09:21:35.014Z,9.678071
2023-07-25T09:22:34.469Z,9.678093
2023-07-25T09:23:34.494Z,9.678080
2023-07-25T09:24:34.490Z,9.678072
2023-07-25T09:25:34.410Z,9.678110
2023-07-25T09:26:34.416Z,9.678108
2023-07-25T09:27:34.392Z,9.678053
2023-07-25T09:28:34.387Z,9.678100
2023-07-25T09:29:34.444Z,9.678085
2023-07-25T09:30:34.386Z,9.678073
2023-07-25T09:31:34.647Z,9.678057
2023-07-25T09:32:34.367Z,9.678134
2023-07-25T09:33:34.550Z,9.678097
2023-07-25T09:34:35.301Z,9.678100
2023-07-25T09:35:34.346Z,9.678112
2023-07-25T09:36:34.328Z,9.678089
2023-07-25T09:37:34.311Z,9.678128
2023-07-25T09:38:34.301Z,9.678111
2023-07-25T09:39:34.282Z,9.678126
2023-07-25T09:40:34.291Z,9.678085
2023-07-25T09:41:34.668Z,9.678094
2023-07-25T09:42:34.261Z,9.678108
2023-07-25T09:43:34.257Z,9.678149
2023-07-25T09:44:34.263Z,9.678098
2023-07-25T09:45:36.490Z,9.678107
2023-07-25T09:46:34.241Z,9.678117
2023-07-25T09:47:34.284Z,9.678100
2023-07-25T09:48:34.282Z,9.678116
2023-07-25T09:49:34.196Z,9.678116
2023-07-25T09:50:34.204Z,9.678139
2023-07-25T09:51:34.312Z,9.678144
2023-07-25T09:52:34.187Z,9.678109
2023-07-25T09:53:34.252Z,9.678026
2023-07-25T09:54:34.162Z,9.678046
2023-07-25T09:55:34.157Z,9.678125
2023-07-25T09:56:35.549Z,9.678098
2023-07-25T09:57:34.164Z,9.678132
2023-07-25T09:58:34.174Z,9.678153
2023-07-25T09:59:34.112Z,9.678122
2023-07-25T10:00:34.126Z,9.678127
2023-07-25T10:01:34.432Z,9.678193
2023-07-25T10:02:34.142Z,9.678117
2023-07-25T10:03:34.158Z,9.678144
2023-07-25T10:04:34.124Z,9.678118
2023-07-25T10:05:34.072Z,9.678137
2023-07-25T10:06:34.918Z,9.678127
2023-07-25T10:07:34.064Z,9.678102
2023-07-25T10:08:34.104Z,9.678091
2023-07-25T10:09:34.024Z,9.678122
2023-07-25T10:10:34.146Z,9.678118
2023-07-25T10:11:34.253Z,9.678133
2023-07-25T10:12:34.047Z,9.678112
2023-07-25T10:13:34.054Z,9.678122
2023-07-25T10:14:34.005Z,9.678131
2023-07-25T10:15:34.041Z,9.678144
2023-07-25T10:16:33.969Z,9.678123
2023-07-25T10:17:34.041Z,9.678085
2023-07-25T10:18:33.968Z,9.678137
2023-07-25T10:19:34.003Z,9.678101
2023-07-25T10:20:33.993Z,9.678094
2023-07-25T10:21:34.154Z,9.678106
2023-07-25T10:22:34.080Z,9.678083
2023-07-25T10:23:33.937Z,9.678130
2023-07-25T10:24:34.009Z,9.678147
2023-07-25T10:25:33.904Z,9.678175
2023-07-25T10:26:33.897Z,9.678165
2023-07-25T10:27:33.911Z,9.678127
2023-07-25T10:28:34.102Z,9.678138
2023-07-25T10:29:33.866Z,9.678109
2023-07-25T10:30:33.866Z,9.678101
2023-07-25T10:31:34.043Z,9.678150
2023-07-25T10:32:33.918Z,9.678065
2023-07-25T10:33:33.836Z,9.678092
2023-07-25T10:34:33.949Z,9.678161
2023-07-25T10:35:33.835Z,9.678177
2023-07-25T10:36:33.866Z,9.678198
2023-07-25T10:37:33.928Z,9.678161
2023-07-25T10:38:33.843Z,9.678165
2023-07-25T10:39:33.781Z,9.678131
2023-07-25T10:40:41.315Z,9.678137
2023-07-25T10:41:34.179Z,9.678135
2023-07-25T10:42:33.774Z,9.678144
2023-07-25T10:43:33.770Z,9.678120
2023-07-25T10:44:33.745Z,9.678142
2023-07-25T10:45:33.770Z,9.678113
2023-07-25T10:46:33.878Z,9.678173
2023-07-25T10:47:33.734Z,9.678144
2023-07-25T10:48:33.782Z,9.678204
2023-07-25T10:49:33.692Z,9.678141
2023-07-25T10:50:33.698Z,9.678175
2023-07-25T10:51:33.774Z,9.678098
2023-07-25T10:52:33.681Z,9.678145
2023-07-25T10:53:33.717Z,9.678246
2023-07-25T10:54:33.674Z,9.678214
2023-07-25T10:55:33.742Z,9.678205
2023-07-25T10:56:33.645Z,9.678206
2023-07-25T10:57:33.629Z,9.678150
2023-07-25T10:58:33.630Z,9.678146
2023-07-25T10:59:33.636Z,9.678135
2023-07-25T11:00:33.618Z,9.678193
2023-07-25T11:01:33.992Z,9.678167
2023-07-25T11:02:33.665Z,9.678160
2023-07-25T11:03:33.574Z,9.678221
2023-07-25T11:04:33.666Z,9.678201
2023-07-25T11:05:33.586Z,9.678183
2023-07-25T11:06:33.570Z,9.678180
2023-07-25T11:07:33.590Z,9.678164
2023-07-25T11:08:33.582Z,9.678145
2023-07-25T11:09:33.519Z,9.678150
2023-07-25T11:10:33.566Z,9.678164
2023-07-25T11:11:33.643Z,9.678187
2023-07-25T11:12:33.548Z,9.678127
2023-07-25T11:13:33.621Z,9.678155
2023-07-25T11:14:33.488Z,9.678157
2023-07-25T11:15:45.942Z,9.678127
2023-07-25T11:16:34.506Z,9.678144
2023-07-25T11:17:33.500Z,9.678072
2023-07-25T11:18:33.519Z,9.678146
2023-07-25T11:19:33.446Z,9.678064
2023-07-25T11:20:33.467Z,9.678147
2023-07-25T11:21:33.612Z,9.678139
2023-07-25T11:22:33.442Z,9.678089
2023-07-25T11:23:33.444Z,9.678118
2023-07-25T11:24:33.494Z,9.678101
2023-07-25T11:25:33.429Z,9.678130
2023-07-25T11:26:33.451Z,9.678137
2023-07-25T11:27:33.415Z,9.678155
2023-07-25T11:28:33.379Z,9.678179
2023-07-25T11:29:33.363Z,9.678210
2023-07-25T11:30:33.416Z,9.678091
2023-07-25T11:31:33.622Z,9.678082
2023-07-25T11:32:33.432Z,9.678061
2023-07-25T11:33:33.336Z,9.678060
2023-07-25T11:34:33.449Z,9.678109
2023-07-25T11:35:33.357Z,9.678148
2023-07-25T11:36:33.328Z,9.678089
2023-07-25T11:37:33.309Z,9.678152
2023-07-25T11:38:33.318Z,9.678163
2023-07-25T11:39:33.316Z,9.678143
2023-07-25T11:40:33.285Z,9.678168
2023-07-25T11:41:33.425Z,9.678227
2023-07-25T11:42:33.266Z,9.678138
2023-07-25T11:43:33.254Z,9.678124
2023-07-25T11:44:33.247Z,9.678115